createdAt,value
2019-01-19T00:04:29.088Z,97530.14
2019-01-19T00:10:04.681Z,97533.25
2019-01-19T00:15:44.607Z,97533.47
2019-01-19T00:21:18.833Z,97532.03
2019-01-19T00:26:55.162Z,97541.26
2019-01-19T00:32:23.199Z,97543.32
2019-01-19T00:37:46.963Z,97538.44
2019-01-19T00:43:10.134Z,97537.11
2019-01-19T00:48:48.106Z,97535.45
2019-01-19T00:54:08.273Z,97539.34
2019-01-19T00:59:37.700Z,97538.18
2019-01-19T01:05:04.621Z,97548.52
2019-01-19T01:10:50.601Z,97541.70
2019-01-19T01:16:25.981Z,97540.05
2019-01-19T01:21:48.305Z,97555.24
2019-01-19T01:27:15.567Z,97540.88
2019-01-19T01:33:04.390Z,97533.06
2019-01-19T01:38:47.153Z,97537.68
2019-01-19T01:44:20.225Z,97534.13
2019-01-19T01:49:39.830Z,97520.40
2019-01-19T01:55:10.833Z,97520.86
2019-01-19T02:00:32.183Z,97516.63
2019-01-19T02:05:57.963Z,97506.56
2019-01-19T02:11:43.853Z,97496.64
2019-01-19T02:17:19.964Z,97489.02
2019-01-19T02:22:56.531Z,97485.56
2019-01-19T02:28:23.801Z,97474.75
2019-01-19T02:34:00.425Z,97473.77
2019-01-19T02:39:40.088Z,97468.42
2019-01-19T02:45:14.016Z,97470.50
2019-01-19T02:50:38.246Z,97457.93
2019-01-19T02:56:14.876Z,97448.77
2019-01-19T03:02:04.088Z,97444.81
2019-01-19T03:07:39.882Z,97437.59
2019-01-19T03:13:11.197Z,97440.27
2019-01-19T03:18:33.760Z,97439.75
2019-01-19T03:24:02.905Z,97435.19
2019-01-19T03:29:27.036Z,97428.19
2019-01-19T03:34:48.614Z,97424.69
2019-01-19T03:40:19.396Z,97418.53
2019-01-19T03:45:55.803Z,97414.33
2019-01-19T03:51:19.511Z,97423.20
2019-01-19T03:56:56.926Z,97422.89
2019-01-19T04:02:18.958Z,97421.34
2019-01-19T04:07:58.708Z,97412.02
2019-01-19T04:13:33.469Z,97403.84
2019-01-19T04:19:13.399Z,97402.09
2019-01-19T04:24:38.909Z,97398.22
2019-01-19T04:29:57.323Z,97396.95
2019-01-19T04:35:14.515Z,97387.20
2019-01-19T04:40:31.587Z,97389.47
2019-01-19T04:45:49.236Z,97388.83
2019-01-19T04:51:06.467Z,97392.55
2019-01-19T04:56:23.943Z,97388.41
2019-01-19T05:01:41.669Z,97381.55
2019-01-19T05:06:59.115Z,97385.89
2019-01-19T05:12:16.382Z,97390.18
2019-01-19T05:17:33.559Z,97381.35
2019-01-19T05:22:50.935Z,97385.33
2019-01-19T05:28:08.489Z,97382.81
2019-01-19T05:33:26.125Z,97378.98
2019-01-19T05:38:43.773Z,97382.44
2019-01-19T05:44:01.750Z,97382.38
2019-01-19T05:49:18.951Z,97388.80
2019-01-19T05:54:36.416Z,97389.80
2019-01-19T05:59:54.191Z,97382.75
2019-01-19T06:05:12.725Z,97379.77
2019-01-19T06:10:29.794Z,97377.77
2019-01-19T06:15:47.588Z,97377.88
2019-01-19T06:21:06.051Z,97371.75
2019-01-19T06:26:23.474Z,97355.32
2019-01-19T06:31:40.891Z,97355.55
2019-01-19T06:36:58.053Z,97352.21
2019-01-19T06:42:15.806Z,97350.34
2019-01-19T06:47:34.267Z,97354.22
2019-01-19T06:52:51.234Z,97355.19
2019-01-19T06:58:08.608Z,97345.20
2019-01-19T07:03:26.281Z,97348.64
2019-01-19T07:08:46.654Z,97351.98
2019-01-19T07:14:04.473Z,97348.30
2019-01-19T07:19:22.978Z,97347.58
2019-01-19T07:24:40.568Z,97350.66
2019-01-19T07:29:58.544Z,97353.95
2019-01-19T07:35:15.975Z,97358.36
2019-01-19T07:40:33.013Z,97347.66
2019-01-19T07:45:50.524Z,97352.12
2019-01-19T07:51:08.437Z,97356.83
2019-01-19T07:56:26.379Z,97357.01
2019-01-19T08:01:43.708Z,97338.01
2019-01-19T08:07:01.340Z,97355.36
2019-01-19T08:12:18.364Z,97352.15
2019-01-19T08:17:35.514Z,97347.62
2019-01-19T08:22:53.437Z,97342.92
2019-01-19T08:28:11.220Z,97335.59
2019-01-19T08:33:28.663Z,97347.78
2019-01-19T08:38:45.685Z,97331.45
2019-01-19T08:44:05.926Z,97334.16
2019-01-19T08:49:23.033Z,97327.13
2019-01-19T08:54:40.209Z,97323.84
2019-01-19T08:59:57.564Z,97321.08
2019-01-19T09:05:15.216Z,97312.88
2019-01-19T09:10:33.235Z,97320.03
2019-01-19T09:15:51.474Z,97320.28
2019-01-19T09:21:08.935Z,97318.98
2019-01-19T09:26:27.182Z,97328.10
2019-01-19T09:31:44.851Z,97323.43
2019-01-19T09:37:02.668Z,97319.16
2019-01-19T09:42:20.518Z,97314.20
2019-01-19T09:47:38.095Z,97311.39
2019-01-19T09:52:56.598Z,97312.77
2019-01-19T09:58:14.706Z,97304.00
2019-01-19T10:03:32.266Z,97298.85
2019-01-19T10:08:52.720Z,97299.62
2019-01-19T10:14:10.403Z,97297.69
2019-01-19T10:19:27.488Z,97284.95
2019-01-19T10:24:44.892Z,97279.84
2019-01-19T10:30:02.258Z,97276.20
2019-01-19T10:35:20.284Z,97273.34
2019-01-19T10:40:38.119Z,97258.91
2019-01-19T10:45:56.314Z,97266.00
2019-01-19T10:51:13.791Z,97261.46
2019-01-19T10:56:30.979Z,97252.84
2019-01-19T11:01:49.006Z,97252.17
2019-01-19T11:07:06.327Z,97252.25
2019-01-19T11:12:23.787Z,97244.94
2019-01-19T11:17:41.693Z,97229.59
2019-01-19T11:22:59.621Z,97221.17
2019-01-19T11:28:17.624Z,97212.19
2019-01-19T11:33:34.865Z,97214.10
2019-01-19T11:38:52.084Z,97198.85
2019-01-19T11:44:09.446Z,97198.59
2019-01-19T11:49:27.465Z,97190.38
2019-01-19T11:54:45.325Z,97191.73
2019-01-19T12:00:03.143Z,97179.95
2019-01-19T12:05:20.891Z,97176.01
2019-01-19T12:10:38.171Z,97165.95
2019-01-19T12:15:55.677Z,97158.97
2019-01-19T12:21:12.947Z,97158.49
2019-01-19T12:26:30.531Z,97154.89
2019-01-19T12:31:47.893Z,97152.89
2019-01-19T12:37:05.441Z,97142.77
2019-01-19T12:42:22.733Z,97135.34
2019-01-19T12:47:40.547Z,97141.00
2019-01-19T12:52:59.168Z,97128.64
2019-01-19T12:58:16.988Z,97124.49
2019-01-19T13:03:34.919Z,97115.20
2019-01-19T13:08:52.743Z,97111.52
2019-01-19T13:14:09.810Z,97111.38
2019-01-19T13:19:36.061Z,97111.20
2019-01-19T13:25:28.127Z,97106.90
2019-01-19T13:31:01.316Z,97099.10
2019-01-19T13:36:41.076Z,97102.78
2019-01-19T13:42:17.870Z,97102.17
2019-01-19T13:47:54.333Z,97097.25
2019-01-19T13:53:34.987Z,97094.57
2019-01-19T13:59:18.154Z,97095.84
2019-01-19T14:05:04.141Z,97088.86
2019-01-19T14:10:33.501Z,97095.84
2019-01-19T14:16:03.627Z,97102.05
2019-01-19T14:21:39.267Z,97098.81
2019-01-19T14:27:13.313Z,97094.81
2019-01-19T14:32:56.625Z,97083.63
2019-01-19T14:38:45.966Z,97085.96
2019-01-19T14:50:11.361Z,97073.97
2019-01-19T14:55:37.462Z,97071.83
2019-01-19T15:01:09.528Z,97062.86
2019-01-19T15:06:53.953Z,97060.83
2019-01-19T15:12:24.067Z,97062.66
2019-01-19T15:18:03.915Z,97061.38
2019-01-19T15:23:39.847Z,97060.69
2019-01-19T15:29:16.604Z,97058.89
2019-01-19T15:34:41.671Z,97056.04
2019-01-19T15:40:06.339Z,97059.80
2019-01-19T15:45:41.775Z,97060.09
2019-01-19T15:51:17.413Z,97063.33
2019-01-19T15:56:57.076Z,97063.14
2019-01-19T16:02:40.282Z,97062.58
2019-01-19T16:08:15.975Z,97057.35
2019-01-19T16:13:37.312Z,97058.16
2019-01-19T16:19:14.013Z,97060.56
2019-01-19T16:24:49.228Z,97055.96
2019-01-19T16:30:26.193Z,97048.51
2019-01-19T16:35:56.586Z,97052.35
2019-01-19T16:41:45.502Z,97054.81
2019-01-19T16:47:12.585Z,97052.70
2019-01-19T16:52:33.665Z,97047.45
2019-01-19T16:57:55.569Z,97049.30
2019-01-19T17:03:22.025Z,97036.41
2019-01-19T17:09:05.459Z,97048.14
2019-01-19T17:14:58.445Z,97046.16
2019-01-19T17:20:22.775Z,97043.87
2019-01-19T17:25:49.729Z,97050.81
2019-01-19T17:31:28.075Z,97046.00
2019-01-19T17:36:52.653Z,97050.91
2019-01-19T17:42:38.625Z,97043.09
2019-01-19T17:48:02.685Z,97048.82
2019-01-19T17:53:49.332Z,97037.05
2019-01-19T17:59:25.058Z,97044.97
2019-01-19T18:05:05.060Z,97035.31
2019-01-19T18:10:51.001Z,97028.84
2019-01-19T18:16:13.863Z,97033.17
2019-01-19T18:21:49.648Z,97035.54
2019-01-19T18:27:25.093Z,97018.83
2019-01-19T18:32:54.196Z,97022.31
2019-01-19T18:38:25.743Z,97023.17
2019-01-19T18:43:59.165Z,97022.70
2019-01-19T18:49:45.183Z,97015.12
2019-01-19T18:55:25.070Z,97018.19
2019-01-19T19:01:14.035Z,97012.87
2019-01-19T19:07:03.359Z,97017.09
2019-01-19T19:12:52.875Z,97015.21
2019-01-19T19:18:28.170Z,97016.66
2019-01-19T19:23:54.235Z,97013.50
2019-01-19T19:29:26.393Z,97014.87
2019-01-19T19:35:06.174Z,97019.47
2019-01-19T19:40:59.114Z,97018.18
2019-01-19T19:46:36.498Z,97012.10
2019-01-19T19:51:56.111Z,97013.02
2019-01-19T19:57:15.011Z,97021.37
2019-01-19T20:02:32.235Z,97016.61
2019-01-19T20:07:49.694Z,97016.47
2019-01-19T20:13:07.935Z,97007.52
2019-01-19T20:18:26.246Z,97009.09
2019-01-19T20:23:43.701Z,97006.84
2019-01-19T20:29:02.018Z,97004.59
2019-01-19T20:34:20.103Z,96997.80
2019-01-19T20:39:38.250Z,97002.78
2019-01-19T20:44:55.478Z,97009.89
2019-01-19T20:50:14.045Z,97004.02
2019-01-19T20:55:32.151Z,97005.08
2019-01-19T21:00:49.511Z,97006.21
2019-01-19T21:06:07.339Z,97004.17
2019-01-19T21:11:24.983Z,96996.52
2019-01-19T21:16:42.246Z,97000.61
2019-01-19T21:22:00.751Z,96989.43
2019-01-19T21:27:20.471Z,96989.60
2019-01-19T21:32:37.915Z,96993.72
2019-01-19T21:37:55.340Z,96988.09
2019-01-19T21:43:13.079Z,96988.84
2019-01-19T21:48:30.409Z,96994.54
2019-01-19T21:53:49.887Z,96996.66
2019-01-19T21:59:09.128Z,96992.41
2019-01-19T22:04:26.595Z,96995.89
2019-01-19T22:09:44.470Z,96989.60
2019-01-19T22:15:01.541Z,96996.36
2019-01-19T22:20:18.785Z,96995.84
2019-01-19T22:25:36.466Z,96991.24
2019-01-19T22:30:53.480Z,96992.31
2019-01-19T22:36:11.183Z,96987.66
2019-01-19T22:41:29.254Z,96986.84
2019-01-19T22:46:46.545Z,96988.02
2019-01-19T22:52:04.223Z,96988.95
2019-01-19T22:57:22.265Z,96985.48
2019-01-19T23:02:39.689Z,96984.88
2019-01-19T23:07:56.777Z,96980.48
2019-01-19T23:13:14.437Z,96974.48
2019-01-19T23:18:31.900Z,96972.48
2019-01-19T23:23:50.343Z,96967.19
2019-01-19T23:29:07.874Z,96959.30
2019-01-19T23:34:25.849Z,96957.17
2019-01-19T23:39:48.630Z,96947.95
2019-01-19T23:45:06.450Z,96948.28
2019-01-19T23:50:23.782Z,96951.87
2019-01-19T23:55:41.396Z,96950.28
